sensor_id;sensor_type;location;lat;lon;timestamp;pressure;altitude;pressure_sealevel;temperature;humidity
72116;BME280;59991;52.140;5.428;2023-12-04T00:00:04;101306.34;;;0.14;100.00
72116;BME280;59991;52.140;5.428;2023-12-04T00:00:36;101304.47;;;0.15;100.00
72116;BME280;59991;52.140;5.428;2023-12-04T00:01:08;101307.66;;;0.17;100.00
72116;BME280;59991;52.140;5.428;2023-12-04T00:01:48;101311.94;;;0.18;100.00
72116;BME280;59991;52.140;5.428;2023-12-04T00:02:19;101311.13;;;0.17;100.00
72116;BME280;59991;52.140;5.428;2023-12-04T00:02:51;101307.34;;;0.18;100.00
72116;BME280;59991;52.140;5.428;2023-12-04T00:03:41;101302.28;;;0.17;100.00
72116;BME280;59991;52.140;5.428;2023-12-04T00:04:13;101303.88;;;0.18;100.00
72116;BME280;59991;52.140;5.428;2023-12-04T00:04:45;101303.88;;;0.18;100.00
72116;BME280;59991;52.140;5.428;2023-12-04T00:05:16;101304.47;;;0.15;100.00
72116;BME280;59991;52.140;5.428;2023-12-04T00:05:48;101306.06;;;0.16;100.00
72116;BME280;59991;52.140;5.428;2023-12-04T00:06:19;101304.97;;;0.17;100.00
72116;BME280;59991;52.140;5.428;2023-12-04T00:06:51;101306.56;;;0.18;100.00
72116;BME280;59991;52.140;5.428;2023-12-04T00:07:22;101305.47;;;0.19;100.00
72116;BME280;59991;52.140;5.428;2023-12-04T00:07:54;101300.09;;;0.19;100.00
72116;BME280;59991;52.140;5.428;2023-12-04T00:08:25;101304.34;;;0.20;100.00
72116;BME280;59991;52.140;5.428;2023-12-04T00:08:57;101294.41;;;0.20;100.00
72116;BME280;59991;52.140;5.428;2023-12-04T00:09:29;101302.47;;;0.20;100.00
72116;BME280;59991;52.140;5.428;2023-12-04T00:10:01;101298.69;;;0.21;100.00
72116;BME280;59991;52.140;5.428;2023-12-04T00:10:50;101298.19;;;0.19;100.00
72116;BME280;59991;52.140;5.428;2023-12-04T00:11:23;101294.75;;;0.19;100.00
72116;BME280;59991;52.140;5.428;2023-12-04T00:11:55;101297.44;;;0.19;100.00
72116;BME280;59991;52.140;5.428;2023-12-04T00:12:27;101297.44;;;0.19;100.00
72116;BME280;59991;52.140;5.428;2023-12-04T00:12:58;101289.38;;;0.19;100.00
72116;BME280;59991;52.140;5.428;2023-12-04T00:13:30;101294.75;;;0.19;100.00
72116;BME280;59991;52.140;5.428;2023-12-04T00:14:01;101290.94;;;0.20;100.00
72116;BME280;59991;52.140;5.428;2023-12-04T00:14:33;101294.41;;;0.20;100.00
72116;BME280;59991;52.140;5.428;2023-12-04T00:15:05;101297.91;;;0.21;100.00
72116;BME280;59991;52.140;5.428;2023-12-04T00:15:37;101297.59;;;0.22;100.00
72116;BME280;59991;52.140;5.428;2023-12-04T00:16:09;101297.59;;;0.22;100.00
72116;BME280;59991;52.140;5.428;2023-12-04T00:16:40;101290.34;;;0.23;100.00
72116;BME280;59991;52.140;5.428;2023-12-04T00:18:01;101293.03;;;0.23;100.00
72116;BME280;59991;52.140;5.428;2023-12-04T00:18:34;101290.34;;;0.23;100.00
72116;BME280;59991;52.140;5.428;2023-12-04T00:19:05;101290.34;;;0.23;100.00
72116;BME280;59991;52.140;5.428;2023-12-04T00:19:38;101293.03;;;0.23;100.00
72116;BME280;59991;52.140;5.428;2023-12-04T00:20:28;101291.94;;;0.24;100.00
72116;BME280;59991;52.140;5.428;2023-12-04T00:21:00;101283.59;;;0.25;100.00
72116;BME280;59991;52.140;5.428;2023-12-04T00:21:31;101282.00;;;0.24;100.00
72116;BME280;59991;52.140;5.428;2023-12-04T00:22:03;101280.91;;;0.25;100.00
72116;BME280;59991;52.140;5.428;2023-12-04T00:22:35;101282.81;;;0.25;100.00
72116;BME280;59991;52.140;5.428;2023-12-04T00:23:07;101283.91;;;0.24;100.00
72116;BME280;59991;52.140;5.428;2023-12-04T00:23:38;101281.50;;;0.22;100.00
72116;BME280;59991;52.140;5.428;2023-12-04T00:24:10;101283.41;;;0.22;100.00
72116;BME280;59991;52.140;5.428;2023-12-04T00:24:41;101283.41;;;0.22;100.00
72116;BME280;59991;52.140;5.428;2023-12-04T00:25:13;101285.00;;;0.23;100.00
72116;BME280;59991;52.140;5.428;2023-12-04T00:25:44;101281.22;;;0.24;100.00
72116;BME280;59991;52.140;5.428;2023-12-04T00:26:16;101282.31;;;0.23;100.00
72116;BME280;59991;52.140;5.428;2023-12-04T00:27:06;101286.59;;;0.24;100.00
72116;BME280;59991;52.140;5.428;2023-12-04T00:27:37;101282.81;;;0.25;100.00
72116;BME280;59991;52.140;5.428;2023-12-04T00:28:09;101283.91;;;0.24;100.00
72116;BME280;59991;52.140;5.428;2023-12-04T00:28:40;101283.59;;;0.25;100.00
72116;BME280;59991;52.140;5.428;2023-12-04T00:29:12;101284.69;;;0.24;100.00
72116;BME280;59991;52.140;5.428;2023-12-04T00:29:43;101275.84;;;0.24;100.00
72116;BME280;59991;52.140;5.428;2023-12-04T00:30:15;101283.91;;;0.24;100.00
72116;BME280;59991;52.140;5.428;2023-12-04T00:30:46;101280.41;;;0.23;100.00
72116;BME280;59991;52.140;5.428;2023-12-04T00:31:18;101276.94;;;0.23;100.00
72116;BME280;59991;52.140;5.428;2023-12-04T00:31:49;101277.25;;;0.21;100.00
72116;BME280;59991;52.140;5.428;2023-12-04T00:32:21;101277.25;;;0.21;100.00
72116;BME280;59991;52.140;5.428;2023-12-04T00:32:53;101279.91;;;0.21;100.00
72116;BME280;59991;52.140;5.428;2023-12-04T00:33:24;101267.31;;;0.22;100.00
72116;BME280;59991;52.140;5.428;2023-12-04T00:33:56;101273.75;;;0.21;100.00
72116;BME280;59991;52.140;5.428;2023-12-04T00:34:27;101274.06;;;0.19;100.00
72116;BME280;59991;52.140;5.428;2023-12-04T00:34:59;101271.38;;;0.19;100.00
72116;BME280;59991;52.140;5.428;2023-12-04T00:35:30;101272.16;;;0.20;100.00
72116;BME280;59991;52.140;5.428;2023-12-04T00:36:02;101267.94;;;0.19;100.00
72116;BME280;59991;52.140;5.428;2023-12-04T00:37:24;101270.28;;;0.20;100.00
72116;BME280;59991;52.140;5.428;2023-12-04T00:37:55;101273.75;;;0.21;100.00
72116;BME280;59991;52.140;5.428;2023-12-04T00:38:27;101272.66;;;0.22;100.00
72116;BME280;59991;52.140;5.428;2023-12-04T00:38:58;101272.66;;;0.22;100.00
72116;BME280;59991;52.140;5.428;2023-12-04T00:39:30;101270.28;;;0.20;100.00
72116;BME280;59991;52.140;5.428;2023-12-04T00:40:03;101264.91;;;0.20;100.00
72116;BME280;59991;52.140;5.428;2023-12-04T00:40:35;101257.97;;;0.19;100.00
72116;BME280;59991;52.140;5.428;2023-12-04T00:41:06;101266.00;;;0.19;100.00
72116;BME280;59991;52.140;5.428;2023-12-04T00:41:38;101263.31;;;0.19;100.00
72116;BME280;59991;52.140;5.428;2023-12-04T00:42:10;101266.00;;;0.19;100.00
72116;BME280;59991;52.140;5.428;2023-12-04T00:42:41;101254.50;;;0.19;100.00
72116;BME280;59991;52.140;5.428;2023-12-04T00:43:13;101260.66;;;0.19;100.00
72116;BME280;59991;52.140;5.428;2023-12-04T00:43:44;101257.19;;;0.19;100.00
72116;BME280;59991;52.140;5.428;2023-12-04T00:44:16;101264.13;;;0.20;100.00
72116;BME280;59991;52.140;5.428;2023-12-04T00:44:47;101261.75;;;0.18;100.00
72116;BME280;59991;52.140;5.428;2023-12-04T00:45:19;101255.59;;;0.18;100.00
72116;BME280;59991;52.140;5.428;2023-12-04T00:46:09;101265.72;;;0.21;100.00
72116;BME280;59991;52.140;5.428;2023-12-04T00:46:40;101261.44;;;0.20;100.00
72116;BME280;59991;52.140;5.428;2023-12-04T00:47:12;101262.56;;;0.19;100.00
72116;BME280;59991;52.140;5.428;2023-12-04T00:47:43;101258.28;;;0.18;100.00
72116;BME280;59991;52.140;5.428;2023-12-04T00:48:15;101257.19;;;0.19;100.00
72116;BME280;59991;52.140;5.428;2023-12-04T00:48:46;101261.44;;;0.20;100.00
72116;BME280;59991;52.140;5.428;2023-12-04T00:49:18;101264.13;;;0.20;100.00
72116;BME280;59991;52.140;5.428;2023-12-04T00:49:50;101269.19;;;0.21;100.00
72116;BME280;59991;52.140;5.428;2023-12-04T00:50:21;101261.16;;;0.21;100.00
72116;BME280;59991;52.140;5.428;2023-12-04T00:50:54;101251.22;;;0.22;100.00
72116;BME280;59991;52.140;5.428;2023-12-04T00:51:25;101265.41;;;0.22;100.00
72116;BME280;59991;52.140;5.428;2023-12-04T00:51:57;101260.06;;;0.22;100.00
72116;BME280;59991;52.140;5.428;2023-12-04T00:52:29;101260.34;;;0.21;100.00
72116;BME280;59991;52.140;5.428;2023-12-04T00:53:00;101260.84;;;0.23;100.00
72116;BME280;59991;52.140;5.428;2023-12-04T00:53:32;101255.78;;;0.21;100.00
72116;BME280;59991;52.140;5.428;2023-12-04T00:54:04;101252.31;;;0.21;100.00
72116;BME280;59991;52.140;5.428;2023-12-04T00:54:39;101255.78;;;0.21;100.00
72116;BME280;59991;52.140;5.428;2023-12-04T00:55:10;101249.63;;;0.21;100.00
72116;BME280;59991;52.140;5.428;2023-12-04T00:55:42;101245.84;;;0.22;100.00
72116;BME280;59991;52.140;5.428;2023-12-04T00:56:13;101252.31;;;0.21;100.00
72116;BME280;59991;52.140;5.428;2023-12-04T00:56:45;101246.16;;;0.20;100.00
72116;BME280;59991;52.140;5.428;2023-12-04T00:57:16;101248.03;;;0.20;100.00
72116;BME280;59991;52.140;5.428;2023-12-04T00:57:48;101245.69;;;0.18;100.00
72116;BME280;59991;52.140;5.428;2023-12-04T00:58:19;101247.56;;;0.18;100.00
72116;BME280;59991;52.140;5.428;2023-12-04T00:58:51;101247.56;;;0.18;100.00
72116;BME280;59991;52.140;5.428;2023-12-04T00:59:22;101251.34;;;0.17;100.00
72116;BME280;59991;52.140;5.428;2023-12-04T00:59:54;101248.66;;;0.17;100.00
72116;BME280;59991;52.140;5.428;2023-12-04T01:00:25;101250.25;;;0.18;100.00
72116;BME280;59991;52.140;5.428;2023-12-04T01:00:57;101252.13;;;0.17;100.00
72116;BME280;59991;52.140;5.428;2023-12-04T01:01:29;101245.19;;;0.16;100.00
72116;BME280;59991;52.140;5.428;2023-12-04T01:02:01;101258.59;;;0.16;100.00
72116;BME280;59991;52.140;5.428;2023-12-04T01:02:33;101247.84;;;0.16;100.00
72116;BME280;59991;52.140;5.428;2023-12-04T01:03:04;101245.47;;;0.15;100.00
72116;BME280;59991;52.140;5.428;2023-12-04T01:03:37;101244.09;;;0.17;100.00
72116;BME280;59991;52.140;5.428;2023-12-04T01:04:09;101252.94;;;0.18;100.00
72116;BME280;59991;52.140;5.428;2023-12-04T01:04:40;101240.31;;;0.18;100.00
72116;BME280;59991;52.140;5.428;2023-12-04T01:05:15;101249.91;;;0.19;100.00
72116;BME280;59991;52.140;5.428;2023-12-04T01:05:46;101247.22;;;0.19;100.00
72116;BME280;59991;52.140;5.428;2023-12-04T01:06:24;101247.75;;;0.21;100.00
72116;BME280;59991;52.140;5.428;2023-12-04T01:06:55;101246.66;;;0.22;100.00
72116;BME280;59991;52.140;5.428;2023-12-04T01:07:27;101248.53;;;0.22;100.00
72116;BME280;59991;52.140;5.428;2023-12-04T01:07:58;101246.94;;;0.21;100.00
72116;BME280;59991;52.140;5.428;2023-12-04T01:08:30;101244.25;;;0.21;100.00
72116;BME280;59991;52.140;5.428;2023-12-04T01:09:01;101248.03;;;0.20;100.00
72116;BME280;59991;52.140;5.428;2023-12-04T01:09:36;101244.25;;;0.21;100.00
72116;BME280;59991;52.140;5.428;2023-12-04T01:10:08;101246.47;;;0.19;100.00
72116;BME280;59991;52.140;5.428;2023-12-04T01:10:39;101241.09;;;0.19;100.00
72116;BME280;59991;52.140;5.428;2023-12-04T01:11:11;101244.25;;;0.21;100.00
72116;BME280;59991;52.140;5.428;2023-12-04T01:11:42;101243.47;;;0.20;100.00
72116;BME280;59991;52.140;5.428;2023-12-04T01:12:14;101242.38;;;0.21;100.00
72116;BME280;59991;52.140;5.428;2023-12-04T01:13:04;101243.16;;;0.22;100.00
72116;BME280;59991;52.140;5.428;2023-12-04T01:13:36;101237.81;;;0.22;100.00
72116;BME280;59991;52.140;5.428;2023-12-04T01:14:07;101247.75;;;0.21;100.00
72116;BME280;59991;52.140;5.428;2023-12-04T01:14:39;101240.47;;;0.22;100.00
72116;BME280;59991;52.140;5.428;2023-12-04T01:15:10;101243.16;;;0.22;100.00
72116;BME280;59991;52.140;5.428;2023-12-04T01:15:42;101243.97;;;0.22;100.00
72116;BME280;59991;52.140;5.428;2023-12-04T01:16:14;101239.69;;;0.21;100.00
72116;BME280;59991;52.140;5.428;2023-12-04T01:16:46;101248.53;;;0.22;100.00
72116;BME280;59991;52.140;5.428;2023-12-04T01:17:18;101248.53;;;0.22;100.00
72116;BME280;59991;52.140;5.428;2023-12-04T01:17:49;101250.13;;;0.23;100.00
72116;BME280;59991;52.140;5.428;2023-12-04T01:18:21;101245.84;;;0.22;100.00
72116;BME280;59991;52.140;5.428;2023-12-04T01:18:52;101247.16;;;0.24;100.00
72116;BME280;59991;52.140;5.428;2023-12-04T01:19:26;101242.88;;;0.23;100.00
72116;BME280;59991;52.140;5.428;2023-12-04T01:19:58;101244.16;;;0.26;100.00
72116;BME280;59991;52.140;5.428;2023-12-04T01:20:46;101245.47;;;0.28;100.00
72116;BME280;59991;52.140;5.428;2023-12-04T01:21:37;101234.75;;;0.28;100.00
72116;BME280;59991;52.140;5.428;2023-12-04T01:22:08;101245.75;;;0.27;100.00
72116;BME280;59991;52.140;5.428;2023-12-04T01:22:40;101238.81;;;0.26;100.00
72116;BME280;59991;52.140;5.428;2023-12-04T01:23:11;101238.31;;;0.24;100.00
72116;BME280;59991;52.140;5.428;2023-12-04T01:23:43;101235.91;;;0.22;100.00
72116;BME280;59991;52.140;5.428;2023-12-04T01:24:15;101242.88;;;0.23;100.00
72116;BME280;59991;52.140;5.428;2023-12-04T01:24:46;101231.34;;;0.23;100.00
72116;BME280;59991;52.140;5.428;2023-12-04T01:25:18;101235.13;;;0.22;100.00
72116;BME280;59991;52.140;5.428;2023-12-04T01:25:50;101233.53;;;0.21;100.00
72116;BME280;59991;52.140;5.428;2023-12-04T01:26:21;101233.53;;;0.21;100.00
72116;BME280;59991;52.140;5.428;2023-12-04T01:26:53;101233.25;;;0.22;100.00
72116;BME280;59991;52.140;5.428;2023-12-04T01:27:24;101235.91;;;0.22;100.00
72116;BME280;59991;52.140;5.428;2023-12-04T01:27:56;101233.53;;;0.21;100.00
72116;BME280;59991;52.140;5.428;2023-12-04T01:28:27;101225.47;;;0.21;100.00
72116;BME280;59991;52.140;5.428;2023-12-04T01:28:59;101222.00;;;0.20;100.00
72116;BME280;59991;52.140;5.428;2023-12-04T01:29:30;101226.56;;;0.20;100.00
72116;BME280;59991;52.140;5.428;2023-12-04T01:30:05;101227.69;;;0.19;100.00
72116;BME280;59991;52.140;5.428;2023-12-04T01:30:37;101226.56;;;0.20;100.00
72116;BME280;59991;52.140;5.428;2023-12-04T01:31:08;101223.09;;;0.19;100.00
72116;BME280;59991;52.140;5.428;2023-12-04T01:31:40;101225.78;;;0.19;100.00
72116;BME280;59991;52.140;5.428;2023-12-04T01:32:11;101222.81;;;0.21;100.00
72116;BME280;59991;52.140;5.428;2023-12-04T01:32:43;101222.81;;;0.21;100.00
72116;BME280;59991;52.140;5.428;2023-12-04T01:33:15;101221.41;;;0.23;100.00
72116;BME280;59991;52.140;5.428;2023-12-04T01:33:47;101227.56;;;0.24;100.00
72116;BME280;59991;52.140;5.428;2023-12-04T01:34:18;101218.44;;;0.25;100.00
72116;BME280;59991;52.140;5.428;2023-12-04T01:34:50;101215.75;;;0.25;100.00
72116;BME280;59991;52.140;5.428;2023-12-04T01:35:21;101224.31;;;0.27;100.00
72116;BME280;59991;52.140;5.428;2023-12-04T01:35:53;101221.91;;;0.25;100.00
72116;BME280;59991;52.140;5.428;2023-12-04T01:36:24;101212.78;;;0.26;100.00
72116;BME280;59991;52.140;5.428;2023-12-04T01:36:55;101214.66;;;0.26;100.00
72116;BME280;59991;52.140;5.428;2023-12-04T01:37:27;101220.03;;;0.26;100.00
72116;BME280;59991;52.140;5.428;2023-12-04T01:37:59;101214.66;;;0.26;100.00
72116;BME280;59991;52.140;5.428;2023-12-04T01:38:30;101221.63;;;0.27;100.00
72116;BME280;59991;52.140;5.428;2023-12-04T01:39:02;101218.16;;;0.26;100.00
72116;BME280;59991;52.140;5.428;2023-12-04T01:39:34;101214.66;;;0.26;100.00
72116;BME280;59991;52.140;5.428;2023-12-04T01:40:07;101219.53;;;0.24;100.00
72116;BME280;59991;52.140;5.428;2023-12-04T01:40:39;101219.53;;;0.24;100.00
72116;BME280;59991;52.140;5.428;2023-12-04T01:41:10;101215.25;;;0.23;100.00
72116;BME280;59991;52.140;5.428;2023-12-04T01:41:42;101217.16;;;0.22;100.00
72116;BME280;59991;52.140;5.428;2023-12-04T01:42:32;101219.03;;;0.22;100.00
72116;BME280;59991;52.140;5.428;2023-12-04T01:43:53;101208.59;;;0.20;100.00
72116;BME280;59991;52.140;5.428;2023-12-04T01:44:25;101204.81;;;0.21;100.00
72116;BME280;59991;52.140;5.428;2023-12-04T01:44:56;101201.34;;;0.21;100.00
72116;BME280;59991;52.140;5.428;2023-12-04T01:45:28;101202.94;;;0.22;100.00
72116;BME280;59991;52.140;5.428;2023-12-04T01:46:00;101209.91;;;0.23;100.00
72116;BME280;59991;52.140;5.428;2023-12-04T01:46:32;101213.38;;;0.23;100.00
72116;BME280;59991;52.140;5.428;2023-12-04T01:47:04;101211.50;;;0.24;100.00
72116;BME280;59991;52.140;5.428;2023-12-04T01:47:35;101208.81;;;0.24;100.00
72116;BME280;59991;52.140;5.428;2023-12-04T01:48:08;101208.00;;;0.23;100.00
72116;BME280;59991;52.140;5.428;2023-12-04T01:48:40;101204.53;;;0.23;100.00
72116;BME280;59991;52.140;5.428;2023-12-04T01:49:12;101216.34;;;0.22;100.00
72116;BME280;59991;52.140;5.428;2023-12-04T01:49:45;101204.03;;;0.21;100.00
72116;BME280;59991;52.140;5.428;2023-12-04T01:50:16;101205.63;;;0.22;100.00
72116;BME280;59991;52.140;5.428;2023-12-04T01:50:48;101213.66;;;0.22;100.00
72116;BME280;59991;52.140;5.428;2023-12-04T01:51:20;101206.72;;;0.21;100.00
72116;BME280;59991;52.140;5.428;2023-12-04T01:51:52;101211.28;;;0.20;100.00
72116;BME280;59991;52.140;5.428;2023-12-04T01:52:24;101213.97;;;0.20;100.00
72116;BME280;59991;52.140;5.428;2023-12-04T01:52:55;101210.00;;;0.18;100.00
72116;BME280;59991;52.140;5.428;2023-12-04T01:53:27;101207.34;;;0.18;100.00
72116;BME280;59991;52.140;5.428;2023-12-04T01:53:59;101207.34;;;0.18;100.00
72116;BME280;59991;52.140;5.428;2023-12-04T01:54:31;101208.13;;;0.18;100.00
72116;BME280;59991;52.140;5.428;2023-12-04T01:55:05;101208.13;;;0.18;100.00
72116;BME280;59991;52.140;5.428;2023-12-04T01:55:37;101201.97;;;0.18;100.00
72116;BME280;59991;52.140;5.428;2023-12-04T01:56:10;101199.28;;;0.18;100.00
72116;BME280;59991;52.140;5.428;2023-12-04T01:56:42;101197.69;;;0.17;100.00
72116;BME280;59991;52.140;5.428;2023-12-04T01:57:14;101200.38;;;0.17;100.00
72116;BME280;59991;52.140;5.428;2023-12-04T01:57:45;101203.56;;;0.19;100.00
72116;BME280;59991;52.140;5.428;2023-12-04T01:58:17;101198.19;;;0.19;100.00
72116;BME280;59991;52.140;5.428;2023-12-04T01:59:06;101201.34;;;0.21;100.00
72116;BME280;59991;52.140;5.428;2023-12-04T01:59:38;101199.47;;;0.21;100.00
72116;BME280;59991;52.140;5.428;2023-12-04T02:00:10;101201.34;;;0.21;100.00
72116;BME280;59991;52.140;5.428;2023-12-04T02:00:42;101193.59;;;0.19;100.00
72116;BME280;59991;52.140;5.428;2023-12-04T02:01:14;101193.59;;;0.19;100.00
72116;BME280;59991;52.140;5.428;2023-12-04T02:01:46;101191.84;;;0.15;100.00
72116;BME280;59991;52.140;5.428;2023-12-04T02:02:18;101193.94;;;0.18;100.00
72116;BME280;59991;52.140;5.428;2023-12-04T02:02:49;101193.13;;;0.17;100.00
72116;BME280;59991;52.140;5.428;2023-12-04T02:03:21;101196.59;;;0.18;100.00
72116;BME280;59991;52.140;5.428;2023-12-04T02:03:53;101189.66;;;0.17;100.00
72116;BME280;59991;52.140;5.428;2023-12-04T02:04:25;101194.72;;;0.18;100.00
72116;BME280;59991;52.140;5.428;2023-12-04T02:04:57;101197.06;;;0.20;100.00
72116;BME280;59991;52.140;5.428;2023-12-04T02:05:31;101188.25;;;0.19;100.00
72116;BME280;59991;52.140;5.428;2023-12-04T02:06:03;101194.41;;;0.20;100.00
72116;BME280;59991;52.140;5.428;2023-12-04T02:06:36;101196.28;;;0.19;100.00
72116;BME280;59991;52.140;5.428;2023-12-04T02:07:08;101188.56;;;0.18;100.00
72116;BME280;59991;52.140;5.428;2023-12-04T02:07:41;101192.03;;;0.18;100.00
72116;BME280;59991;52.140;5.428;2023-12-04T02:08:13;101188.56;;;0.18;100.00
72116;BME280;59991;52.140;5.428;2023-12-04T02:08:46;101192.84;;;0.19;100.00
72116;BME280;59991;52.140;5.428;2023-12-04T02:09:18;101192.03;;;0.18;100.00
72116;BME280;59991;52.140;5.428;2023-12-04T02:09:50;101189.34;;;0.18;100.00
72116;BME280;59991;52.140;5.428;2023-12-04T02:10:22;101186.34;;;0.20;100.00
72116;BME280;59991;52.140;5.428;2023-12-04T02:10:54;101190.63;;;0.21;100.00
72116;BME280;59991;52.140;5.428;2023-12-04T02:11:25;101186.06;;;0.21;100.00
72116;BME280;59991;52.140;5.428;2023-12-04T02:11:58;101178.81;;;0.22;100.00
72116;BME280;59991;52.140;5.428;2023-12-04T02:12:30;101179.59;;;0.22;100.00
72116;BME280;59991;52.140;5.428;2023-12-04T02:13:03;101183.06;;;0.23;100.00
72116;BME280;59991;52.140;5.428;2023-12-04T02:13:35;101178.81;;;0.22;100.00
72116;BME280;59991;52.140;5.428;2023-12-04T02:14:07;101173.75;;;0.20;100.00
72116;BME280;59991;52.140;5.428;2023-12-04T02:14:39;101174.06;;;0.19;100.00
72116;BME280;59991;52.140;5.428;2023-12-04T02:15:10;101181.31;;;0.18;100.00
72116;BME280;59991;52.140;5.428;2023-12-04T02:15:42;101181.59;;;0.17;100.00
72116;BME280;59991;52.140;5.428;2023-12-04T02:16:14;101178.13;;;0.16;100.00
72116;BME280;59991;52.140;5.428;2023-12-04T02:16:47;101173.56;;;0.17;100.00
72116;BME280;59991;52.140;5.428;2023-12-04T02:17:20;101174.34;;;0.17;100.00
72116;BME280;59991;52.140;5.428;2023-12-04T02:17:53;101174.34;;;0.17;100.00
72116;BME280;59991;52.140;5.428;2023-12-04T02:18:25;101170.88;;;0.17;100.00
72116;BME280;59991;52.140;5.428;2023-12-04T02:18:58;101172.47;;;0.18;100.00
72116;BME280;59991;52.140;5.428;2023-12-04T02:19:30;101173.75;;;0.20;100.00
72116;BME280;59991;52.140;5.428;2023-12-04T02:20:02;101173.28;;;0.18;100.00
72116;BME280;59991;52.140;5.428;2023-12-04T02:20:35;101177.84;;;0.18;100.00
72116;BME280;59991;52.140;5.428;2023-12-04T02:21:07;101169.78;;;0.18;100.00
72116;BME280;59991;52.140;5.428;2023-12-04T02:21:38;101169.78;;;0.18;100.00
72116;BME280;59991;52.140;5.428;2023-12-04T02:22:10;101169.47;;;0.19;100.00
72116;BME280;59991;52.140;5.428;2023-12-04T02:22:41;101167.09;;;0.18;100.00
72116;BME280;59991;52.140;5.428;2023-12-04T02:23:13;101174.81;;;0.19;100.00
72116;BME280;59991;52.140;5.428;2023-12-04T02:23:49;101169.47;;;0.19;100.00
72116;BME280;59991;52.140;5.428;2023-12-04T02:24:21;101165.69;;;0.20;100.00
72116;BME280;59991;52.140;5.428;2023-12-04T02:24:52;101168.38;;;0.20;100.00
72116;BME280;59991;52.140;5.428;2023-12-04T02:25:24;101167.28;;;0.21;100.00
72116;BME280;59991;52.140;5.428;2023-12-04T02:26:14;101174.22;;;0.22;100.00
72116;BME280;59991;52.140;5.428;2023-12-04T02:26:52;101169.66;;;0.23;100.00
72116;BME280;59991;52.140;5.428;2023-12-04T02:27:29;101167.28;;;0.21;100.00
72116;BME280;59991;52.140;5.428;2023-12-04T02:28:10;101174.53;;;0.21;100.00
72116;BME280;59991;52.140;5.428;2023-12-04T02:28:49;101166.78;;;0.19;100.00
72116;BME280;59991;52.140;5.428;2023-12-04T02:29:33;101169.78;;;0.18;100.00
72116;BME280;59991;52.140;5.428;2023-12-04T02:30:11;101166.31;;;0.17;100.00
72116;BME280;59991;52.140;5.428;2023-12-04T02:30:43;101181.31;;;0.18;100.00
72116;BME280;59991;52.140;5.428;2023-12-04T02:31:16;101167.56;;;0.20;100.00
72116;BME280;59991;52.140;5.428;2023-12-04T02:31:50;101166.78;;;0.19;100.00
72116;BME280;59991;52.140;5.428;2023-12-04T02:32:23;101165.22;;;0.18;100.00
72116;BME280;59991;52.140;5.428;2023-12-04T02:32:57;101163.34;;;0.19;100.00
72116;BME280;59991;52.140;5.428;2023-12-04T02:33:29;101160.66;;;0.19;100.00
72116;BME280;59991;52.140;5.428;2023-12-04T02:34:06;101164.44;;;0.18;100.00
72116;BME280;59991;52.140;5.428;2023-12-04T02:34:39;101167.56;;;0.20;100.00
72116;BME280;59991;52.140;5.428;2023-12-04T02:35:14;101157.19;;;0.18;100.00
72116;BME280;59991;52.140;5.428;2023-12-04T02:35:47;101166.03;;;0.19;100.00
72116;BME280;59991;52.140;5.428;2023-12-04T02:36:19;101166.50;;;0.21;100.00
72116;BME280;59991;52.140;5.428;2023-12-04T02:36:53;101163.81;;;0.21;100.00
72116;BME280;59991;52.140;5.428;2023-12-04T02:37:25;101156.06;;;0.19;100.00
72116;BME280;59991;52.140;5.428;2023-12-04T02:37:57;101149.94;;;0.19;100.00
72116;BME280;59991;52.140;5.428;2023-12-04T02:38:29;101154.50;;;0.18;100.00
72116;BME280;59991;52.140;5.428;2023-12-04T02:39:01;101156.84;;;0.20;100.00
72116;BME280;59991;52.140;5.428;2023-12-04T02:39:33;101156.06;;;0.19;100.00
72116;BME280;59991;52.140;5.428;2023-12-04T02:40:05;101148.00;;;0.19;100.00
72116;BME280;59991;52.140;5.428;2023-12-04T02:40:38;101151.50;;;0.20;100.00
72116;BME280;59991;52.140;5.428;2023-12-04T02:41:09;101151.50;;;0.20;100.00
72116;BME280;59991;52.140;5.428;2023-12-04T02:41:41;101149.94;;;0.19;100.00
72116;BME280;59991;52.140;5.428;2023-12-04T02:42:12;101150.69;;;0.19;100.00
72116;BME280;59991;52.140;5.428;2023-12-04T02:43:02;101151.50;;;0.20;100.00
72116;BME280;59991;52.140;5.428;2023-12-04T02:43:34;101146.13;;;0.20;100.00
72116;BME280;59991;52.140;5.428;2023-12-04T02:44:06;101138.06;;;0.20;100.00
72116;BME280;59991;52.140;5.428;2023-12-04T02:44:37;101144.56;;;0.19;100.00
72116;BME280;59991;52.140;5.428;2023-12-04T02:45:09;101137.28;;;0.19;100.00
72116;BME280;59991;52.140;5.428;2023-12-04T02:45:40;101135.41;;;0.20;100.00
72116;BME280;59991;52.140;5.428;2023-12-04T02:46:12;101136.19;;;0.20;100.00
72116;BME280;59991;52.140;5.428;2023-12-04T02:46:43;101132.41;;;0.21;100.00
72116;BME280;59991;52.140;5.428;2023-12-04T02:47:15;101135.91;;;0.22;100.00
72116;BME280;59991;52.140;5.428;2023-12-04T02:47:46;101132.41;;;0.21;100.00
72116;BME280;59991;52.140;5.428;2023-12-04T02:48:18;101130.53;;;0.22;100.00
72116;BME280;59991;52.140;5.428;2023-12-04T02:48:50;101132.41;;;0.21;100.00
72116;BME280;59991;52.140;5.428;2023-12-04T02:49:21;101129.75;;;0.21;100.00
72116;BME280;59991;52.140;5.428;2023-12-04T02:49:53;101127.84;;;0.22;100.00
72116;BME280;59991;52.140;5.428;2023-12-04T02:50:24;101124.38;;;0.21;100.00
72116;BME280;59991;52.140;5.428;2023-12-04T02:50:56;101130.81;;;0.20;100.00
72116;BME280;59991;52.140;5.428;2023-12-04T02:51:27;101127.06;;;0.21;100.00
72116;BME280;59991;52.140;5.428;2023-12-04T02:51:59;101125.97;;;0.22;100.00
72116;BME280;59991;52.140;5.428;2023-12-04T02:52:30;101124.38;;;0.21;100.00
72116;BME280;59991;52.140;5.428;2023-12-04T02:53:02;101116.63;;;0.20;100.00
72116;BME280;59991;52.140;5.428;2023-12-04T02:53:33;101117.75;;;0.19;100.00